Phillips, NE (68865)

1:56 PM CDT on September 30, 2016 (GMT -0500)
Barr | | Change Station

Elev 1864 ft 40.90 °N, 98.34 °W | Updated 27 seconds ago

Clear
Clear
68.0 °F
Feels Like 68.0 °F
N
0.0
Wind Variable Wind from SE

Today
High -- | Low -- °F
--% Chance of Precip.
Yesterday
High -- | Low -- °F
Precip. -- in
Pressure 30.24 in
Visibility 10.0 miles
Clouds Clear
Dew Point 48 °F
Humidity 50%
Rainfall 0.00 in
Snow Depth Not available.
7:28 AM 7:15 PM
Waning Crescent, 0% visible
METAR KGRI 301853Z 15010KT 10SM CLR 21/06 A3023 RMK AO2 SLP239 T02060061
Pressure 30.24 in
Visibility 10.0 miles
Clouds Clear
Dew Point 48 °F
Humidity 50%
Rainfall 0.00 in
Snow Depth Not available.
7:28 AM 7:15 PM
Waning Crescent, 0% visible
METAR KGRI 301853Z 15010KT 10SM CLR 21/06 A3023 RMK AO2 SLP239 T02060061

10-Day Weather Forecast

Almanac

Astronomy

Sep. 30, 2016 Rise Set
Actual Time
Civil Twilight
Nautical Twilight
Astronomical Twilight
Moon
Length of Visible Light
Length of Day
Tomorrow will be .
, % of the Moon is Illuminated

Today's Extremes

State Highs State Lows

Community

WunderPhotos

Upload Photos

1,942,755 photos uploaded!

WunderBlog® & News

Nearby

Air Quality

  Air Quality AQ Index Pollutant
Not available.

Snow Depth

Station Depth Elevation

Earthquake Activity

City Distance Mag. Time & Date
Minimum magnitude displayed is 2.5.

Coastal Water Temperatures

Place Temperature

Stations

Nearby Weather Stations

Station Location Temp. Windchill Dew Point Humidity Wind Precip. Elev Updated Type
                   

Watches & Warnings

There are currently no watches in effect.